Contenu

METAR / TAF

La liste des METAR et des TAF n’est pas destinée pour un briefing météo pour des raisons techniques (disponibilité, cycle de renouvellement). Il faut plutôt utiliser le skybriefing de Skyguide ou le TAMSI (plateforme de self-briefing météo conçue par MétéoSuisse pour les entreprises dans le domaine de l’aéronautique, questions et demandes d’informations à 

Formulaire de contact

 

METAR Suisse

METAR     LSZH 052020Z VRB01KT CAVOK 21/16 Q1018 NOSIG=
METAR     LSZH 052050Z 32002KT CAVOK 20/15 Q1018 NOSIG=
METAR     LSGG 052020Z VRB02KT CAVOK 22/13 Q1018 NOSIG=
METAR     LSGG 052050Z VRB01KT CAVOK 21/12 Q1019 NOSIG=
METAR     LFSB 052100Z AUTO 19003KT 150V230 CAVOK 22/15 Q1017 BECMG
               29010KT=
METAR     LSZB 052020Z AUTO VRB02KT CAVOK 19/16 Q1018=
METAR     LSZB 052050Z AUTO VRB02KT CAVOK 18/17 Q1018=
METAR     LSZA 052020Z AUTO VRB02KT CAVOK 24/19 Q1015=
METAR     LSZA 052050Z AUTO VRB01KT CAVOK 23/19 Q1015=
METAR     LSZG 052020Z AUTO 25003KT CAVOK 22/15 Q1018=
METAR     LSZG 052050Z AUTO 26005KT 220V300 CAVOK 20/15 Q1018=
METAR     LSZR 052020Z AUTO 21003KT CAVOK 21/18 Q1017=
METAR     LSZR 052050Z AUTO VRB02KT CAVOK 20/18 Q1017=
METAR     LSGS 052020Z AUTO 23006KT 200V260 CAVOK 25/14 Q1017=
METAR     LSGS 052050Z AUTO 22003KT 150V260 CAVOK 24/14 Q1017=
METAR     LSGC 052020Z AUTO 26005KT CAVOK 18/14 Q1022=
METAR     LSGC 052050Z AUTO 25006KT 210V290 CAVOK 17/14 Q1022=
METAR     LSZC 052020Z AUTO VRB03KT 9999 FEW050 SCT075 23/18 Q1018=
METAR     LSZC 052050Z AUTO 27004KT 240V300 9999 FEW055 OVC075
               22/17 Q1018=
METAR     LSZL 052020Z AUTO 00000KT 7000NDV -SHRA NCD 23/20 Q1014
               RMK=
METAR     LSZL 052050Z AUTO 00000KT 9999NDV NCD 23/20 Q1014 RMK=
METAR     LSZS 052020Z AUTO 02008KT CAVOK 13/08 Q1023=
METAR     LSZS 052050Z AUTO VRB02KT CAVOK 12/08 Q1023=
METAR     LSMA 052020Z AUTO 00000KT 2800NDV FEW071 22/18 Q1018 RMK=
METAR     LSMA 052050Z AUTO VRB02KT 9999NDV SCT074 21/18 Q1018 RMK=
METAR     LSMD 052020Z AUTO 31003KT 280V340 8000NDV BR NCD 23/16
               Q1018 RMK=
METAR     LSMD 052050Z AUTO 00000KT 9999NDV NCD 21/16 Q1018 RMK=
METAR     LSME 052020Z AUTO VRB01KT 9999NDV FEW059 23/16 Q1018 RMK=
METAR     LSME 052050Z AUTO 00000KT 9999NDV BKN059 21/17 Q1018 RMK=
METAR RRA LSMM 052020Z AUTO 11003KT 080V140 9999NDV BKN052 OVC067
               20/18 Q1018 RMK=
METAR     LSMM 052050Z AUTO 12002KT 9999NDV BKN052 BKN062 BKN073
               20/18 Q1019 RMK=
METAR     LSMP 052020Z AUTO VRB02KT 9999NDV NCD 22/15 Q1018 RMK=
METAR     LSMP 052050Z AUTO 00000KT 9999NDV NCD 20/15 Q1018 RMK=
Actualisé le dimanche 05 juillet 2020 à 23h10

TAF Suisse

TAF RRA LSZH 051725Z 0518/0624 30010KT 9999 FEW050 TX22/0615Z
             TN16/0604Z BECMG 0518/0521 VRB03KT BECMG 0602/0605
             BKN040 BECMG 0607/0610 25008KT PROB40 0610/0617
             29013G28KT=
TAF     LSGG 051725Z 0518/0624 VRB03KT 9999 FEW050 TX26/0615Z
             TN16/0604Z BECMG 0518/0520 CAVOK BECMG 0603/0606 9999
             SCT030 TEMPO 0610/0616 32010KT BECMG 0616/0618
             03007KT CAVOK=
TAF     LFSB 051700Z 0518/0618 29010KT CAVOK TEMPO 0604/0608 -RA
             TEMPO 0610/0618 29015G25KT=
TAF     LSGS 051425Z 0515/0524 26016KT 9999 FEW120 BECMG 0518/0521
             VRB03KT=
TAF     LSZA 051425Z 0515/0524 19006KT 9999 FEW070 BECMG 0516/0519
             CAVOK=
TAF     LSZB 051425Z 0515/0524 31006KT 9999 FEW050 BECMG 0516/0519
             CAVOK=
TAF     LSZG 051425Z 0515/0524 27005KT 9999 FEW050 BECMG 0516/0518
             CAVOK=
TAF     LSZR 051425Z 0515/0524 VRB03KT CAVOK=
TAF     LSGC 051425Z 0515/0524 23010KT 9999 SCT030 BECMG 0518/0520
             VRB03KT=
TAF     LSZS 051425Z 0515/0524 32010KT 9999 FEW065 TX23/0515Z BECMG
             0517/0520 VRB03KT=
TAF     LSMA 051625Z 0517/0623 03006KT 9999 FEW065 PROB40 TEMPO
             0517/0520 CAVOK BECMG 0609/0612 04010KT TEMPO
             0610/0617 SHRA PROB40 TEMPO 0615/0620 04012G25KT=
TAF     LSMD 051625Z 0517/0623 28008KT 9999 FEW050 TEMPO 0517/0520
             CAVOK PROB40 TEMPO 0610/0616 SHRA TEMPO 0611/0618
             31012KT=
TAF     LSME 051625Z 0517/0623 30008KT 9999 FEW055 PROB40 TEMPO
             0517/0520 CAVOK PROB40 TEMPO 0610/0616 SHRA=
TAF     LSMM 051625Z 0517/0623 25007KT 9999 FEW065 BECMG 0609/0612
             28008KT PROB40 TEMPO 0613/0619 30012G25KT SHRA=
TAF     LSMP 051625Z 0517/0623 22010KT 9999 FEW040 BECMG 0518/0520
             VRB03KT CAVOK BECMG 0602/0604 29010KT 9999 SCT040
             BECMG 0617/0619 VRB03KT CAVOK=
Actualisé le dimanche 05 juillet 2020 à 21h02